sensor_id;sensor_type;location;lat;lon;timestamp;temperature;humidity
39779;DHT22;25454;49.878;8.618;2023-05-10T00:02:33;14.00;99.90
39779;DHT22;25454;49.878;8.618;2023-05-10T00:07:34;13.90;99.90
39779;DHT22;25454;49.878;8.618;2023-05-10T00:12:34;13.90;99.90
39779;DHT22;25454;49.878;8.618;2023-05-10T00:17:35;13.90;99.90
39779;DHT22;25454;49.878;8.618;2023-05-10T00:22:35;13.80;99.90
39779;DHT22;25454;49.878;8.618;2023-05-10T00:27:36;13.80;99.90
39779;DHT22;25454;49.878;8.618;2023-05-10T00:32:37;13.90;99.90
39779;DHT22;25454;49.878;8.618;2023-05-10T00:37:37;13.80;99.90
39779;DHT22;25454;49.878;8.618;2023-05-10T00:42:38;13.90;99.90
39779;DHT22;25454;49.878;8.618;2023-05-10T00:47:39;13.90;99.90
39779;DHT22;25454;49.878;8.618;2023-05-10T00:52:40;13.90;99.90
39779;DHT22;25454;49.878;8.618;2023-05-10T00:57:41;13.80;99.90
39779;DHT22;25454;49.878;8.618;2023-05-10T01:02:41;13.90;99.90
39779;DHT22;25454;49.878;8.618;2023-05-10T01:07:42;13.90;99.90
39779;DHT22;25454;49.878;8.618;2023-05-10T01:12:45;13.90;99.90
39779;DHT22;25454;49.878;8.618;2023-05-10T01:17:47;13.90;99.90
39779;DHT22;25454;49.878;8.618;2023-05-10T01:44:16;13.80;99.90
39779;DHT22;25454;49.878;8.618;2023-05-10T01:49:26;13.80;99.90
39779;DHT22;25454;49.878;8.618;2023-05-10T01:54:30;13.80;99.90
39779;DHT22;25454;49.878;8.618;2023-05-10T01:59:34;13.80;99.90
39779;DHT22;25454;49.878;8.618;2023-05-10T02:04:38;13.70;99.90
39779;DHT22;25454;49.878;8.618;2023-05-10T02:09:40;13.70;99.90
39779;DHT22;25454;49.878;8.618;2023-05-10T02:14:42;13.70;99.90
39779;DHT22;25454;49.878;8.618;2023-05-10T02:19:43;13.60;99.90
39779;DHT22;25454;49.878;8.618;2023-05-10T02:24:45;13.60;99.90
39779;DHT22;25454;49.878;8.618;2023-05-10T02:29:48;13.60;99.90
39779;DHT22;25454;49.878;8.618;2023-05-10T02:34:50;13.50;99.90
39779;DHT22;25454;49.878;8.618;2023-05-10T02:39:54;13.60;99.90
39779;DHT22;25454;49.878;8.618;2023-05-10T02:45:00;13.60;99.90
39779;DHT22;25454;49.878;8.618;2023-05-10T02:50:01;13.60;99.90
39779;DHT22;25454;49.878;8.618;2023-05-10T02:55:03;13.60;99.90
39779;DHT22;25454;49.878;8.618;2023-05-10T03:00:06;13.60;99.90
39779;DHT22;25454;49.878;8.618;2023-05-10T03:05:06;13.60;99.90
39779;DHT22;25454;49.878;8.618;2023-05-10T03:10:07;13.50;99.90
39779;DHT22;25454;49.878;8.618;2023-05-10T03:20:31;13.50;99.90
39779;DHT22;25454;49.878;8.618;2023-05-10T03:25:35;13.50;99.90
39779;DHT22;25454;49.878;8.618;2023-05-10T03:30:37;13.50;99.90
39779;DHT22;25454;49.878;8.618;2023-05-10T03:35:38;13.40;99.90
39779;DHT22;25454;49.878;8.618;2023-05-10T03:40:39;13.40;99.90
39779;DHT22;25454;49.878;8.618;2023-05-10T03:45:40;13.40;99.90
39779;DHT22;25454;49.878;8.618;2023-05-10T03:50:40;13.40;99.90
39779;DHT22;25454;49.878;8.618;2023-05-10T03:55:41;13.40;99.90
39779;DHT22;25454;49.878;8.618;2023-05-10T04:00:42;13.50;99.90
39779;DHT22;25454;49.878;8.618;2023-05-10T04:05:45;13.50;99.90
39779;DHT22;25454;49.878;8.618;2023-05-10T04:10:46;13.50;99.90
39779;DHT22;25454;49.878;8.618;2023-05-10T04:15:46;13.50;99.90
39779;DHT22;25454;49.878;8.618;2023-05-10T04:20:47;13.50;99.90
39779;DHT22;25454;49.878;8.618;2023-05-10T04:25:47;13.70;99.90
39779;DHT22;25454;49.878;8.618;2023-05-10T04:30:48;13.70;99.90
39779;DHT22;25454;49.878;8.618;2023-05-10T04:35:48;13.70;99.90
39779;DHT22;25454;49.878;8.618;2023-05-10T04:40:49;13.80;99.90
39779;DHT22;25454;49.878;8.618;2023-05-10T04:45:50;13.80;99.90
39779;DHT22;25454;49.878;8.618;2023-05-10T04:50:51;13.80;99.90
39779;DHT22;25454;49.878;8.618;2023-05-10T04:55:51;13.80;99.90
39779;DHT22;25454;49.878;8.618;2023-05-10T05:00:52;13.90;99.90
39779;DHT22;25454;49.878;8.618;2023-05-10T05:05:52;14.00;99.90
39779;DHT22;25454;49.878;8.618;2023-05-10T05:10:53;13.90;99.90
39779;DHT22;25454;49.878;8.618;2023-05-10T05:15:54;14.00;99.90
39779;DHT22;25454;49.878;8.618;2023-05-10T05:20:55;13.90;99.90
39779;DHT22;25454;49.878;8.618;2023-05-10T05:25:56;14.00;99.90
39779;DHT22;25454;49.878;8.618;2023-05-10T05:30:56;14.00;99.90
39779;DHT22;25454;49.878;8.618;2023-05-10T05:35:57;14.20;99.90
39779;DHT22;25454;49.878;8.618;2023-05-10T05:41:00;14.20;99.90
39779;DHT22;25454;49.878;8.618;2023-05-10T05:46:01;14.20;99.90
39779;DHT22;25454;49.878;8.618;2023-05-10T05:51:01;14.30;99.90
39779;DHT22;25454;49.878;8.618;2023-05-10T05:56:03;14.60;99.90
39779;DHT22;25454;49.878;8.618;2023-05-10T06:01:03;14.90;99.90
39779;DHT22;25454;49.878;8.618;2023-05-10T06:06:04;15.20;99.90
39779;DHT22;25454;49.878;8.618;2023-05-10T06:11:05;15.40;99.90
39779;DHT22;25454;49.878;8.618;2023-05-10T06:16:05;15.90;99.90
39779;DHT22;25454;49.878;8.618;2023-05-10T06:21:06;15.80;99.90
39779;DHT22;25454;49.878;8.618;2023-05-10T06:26:07;15.80;99.90
39779;DHT22;25454;49.878;8.618;2023-05-10T06:31:07;15.90;99.90
39779;DHT22;25454;49.878;8.618;2023-05-10T06:36:08;16.10;99.90
39779;DHT22;25454;49.878;8.618;2023-05-10T06:41:09;16.20;99.90
39779;DHT22;25454;49.878;8.618;2023-05-10T06:46:09;16.30;99.90
39779;DHT22;25454;49.878;8.618;2023-05-10T06:51:10;16.20;99.90
39779;DHT22;25454;49.878;8.618;2023-05-10T06:56:11;16.30;99.90
39779;DHT22;25454;49.878;8.618;2023-05-10T07:01:11;16.50;99.90
39779;DHT22;25454;49.878;8.618;2023-05-10T07:06:12;16.60;99.90
39779;DHT22;25454;49.878;8.618;2023-05-10T07:11:13;16.50;99.90
39779;DHT22;25454;49.878;8.618;2023-05-10T07:16:13;16.30;99.90
39779;DHT22;25454;49.878;8.618;2023-05-10T07:21:14;16.10;99.90
39779;DHT22;25454;49.878;8.618;2023-05-10T07:26:17;16.30;99.90
39779;DHT22;25454;49.878;8.618;2023-05-10T07:31:18;16.70;99.90
39779;DHT22;25454;49.878;8.618;2023-05-10T07:36:22;17.10;99.90
39779;DHT22;25454;49.878;8.618;2023-05-10T07:41:23;17.70;99.90
39779;DHT22;25454;49.878;8.618;2023-05-10T07:46:23;18.30;99.90
39779;DHT22;25454;49.878;8.618;2023-05-10T07:51:24;18.40;99.90
39779;DHT22;25454;49.878;8.618;2023-05-10T07:56:32;19.20;99.90
39779;DHT22;25454;49.878;8.618;2023-05-10T08:01:34;18.80;99.90
39779;DHT22;25454;49.878;8.618;2023-05-10T08:06:35;18.20;99.90
39779;DHT22;25454;49.878;8.618;2023-05-10T08:11:35;17.90;99.90
39779;DHT22;25454;49.878;8.618;2023-05-10T08:16:36;17.70;99.90
39779;DHT22;25454;49.878;8.618;2023-05-10T08:21:37;17.40;99.90
39779;DHT22;25454;49.878;8.618;2023-05-10T08:26:37;17.20;99.90
39779;DHT22;25454;49.878;8.618;2023-05-10T08:31:38;16.80;99.90
39779;DHT22;25454;49.878;8.618;2023-05-10T08:36:38;16.30;99.90
39779;DHT22;25454;49.878;8.618;2023-05-10T08:41:44;15.90;99.90
39779;DHT22;25454;49.878;8.618;2023-05-10T08:46:46;15.80;99.90
39779;DHT22;25454;49.878;8.618;2023-05-10T08:51:52;15.90;99.90
39779;DHT22;25454;49.878;8.618;2023-05-10T08:56:54;16.30;99.90
39779;DHT22;25454;49.878;8.618;2023-05-10T09:01:57;17.10;99.90
39779;DHT22;25454;49.878;8.618;2023-05-10T09:06:58;17.80;99.90
39779;DHT22;25454;49.878;8.618;2023-05-10T09:11:59;18.30;99.90
39779;DHT22;25454;49.878;8.618;2023-05-10T09:17:00;18.60;99.90
39779;DHT22;25454;49.878;8.618;2023-05-10T09:22:00;19.30;99.90
39779;DHT22;25454;49.878;8.618;2023-05-10T09:27:02;20.10;99.90
39779;DHT22;25454;49.878;8.618;2023-05-10T09:32:06;21.40;99.90
39779;DHT22;25454;49.878;8.618;2023-05-10T09:37:06;22.20;99.90
39779;DHT22;25454;49.878;8.618;2023-05-10T09:42:09;20.10;99.90
39779;DHT22;25454;49.878;8.618;2023-05-10T09:47:09;18.20;99.90
39779;DHT22;25454;49.878;8.618;2023-05-10T09:52:10;17.50;99.90
39779;DHT22;25454;49.878;8.618;2023-05-10T09:57:21;17.30;99.90
39779;DHT22;25454;49.878;8.618;2023-05-10T10:02:28;17.40;99.90
39779;DHT22;25454;49.878;8.618;2023-05-10T10:07:29;17.40;99.90
39779;DHT22;25454;49.878;8.618;2023-05-10T10:12:30;17.40;99.90
39779;DHT22;25454;49.878;8.618;2023-05-10T10:17:31;17.40;99.90
39779;DHT22;25454;49.878;8.618;2023-05-10T10:22:32;17.50;99.90
39779;DHT22;25454;49.878;8.618;2023-05-10T10:38:13;18.60;99.90
39779;DHT22;25454;49.878;8.618;2023-05-10T10:43:28;19.00;99.90
39779;DHT22;25454;49.878;8.618;2023-05-10T10:48:28;18.90;99.90
39779;DHT22;25454;49.878;8.618;2023-05-10T10:53:29;18.60;99.90
39779;DHT22;25454;49.878;8.618;2023-05-10T10:58:31;18.50;99.90
39779;DHT22;25454;49.878;8.618;2023-05-10T11:03:32;19.40;99.90
39779;DHT22;25454;49.878;8.618;2023-05-10T11:08:35;19.10;99.90
39779;DHT22;25454;49.878;8.618;2023-05-10T11:13:44;18.30;99.90
39779;DHT22;25454;49.878;8.618;2023-05-10T11:19:03;17.60;99.90
39779;DHT22;25454;49.878;8.618;2023-05-10T11:24:13;17.30;99.90
39779;DHT22;25454;49.878;8.618;2023-05-10T11:29:14;17.40;99.90
39779;DHT22;25454;49.878;8.618;2023-05-10T11:34:29;18.10;99.90
39779;DHT22;25454;49.878;8.618;2023-05-10T11:39:31;20.60;99.90
39779;DHT22;25454;49.878;8.618;2023-05-10T11:44:32;22.20;99.90
39779;DHT22;25454;49.878;8.618;2023-05-10T11:49:33;22.40;99.90
39779;DHT22;25454;49.878;8.618;2023-05-10T11:54:34;22.70;99.90
39779;DHT22;25454;49.878;8.618;2023-05-10T11:59:36;23.00;99.90
39779;DHT22;25454;49.878;8.618;2023-05-10T12:04:37;23.30;99.90
39779;DHT22;25454;49.878;8.618;2023-05-10T12:09:44;23.40;99.90
39779;DHT22;25454;49.878;8.618;2023-05-10T12:14:50;23.40;99.90
39779;DHT22;25454;49.878;8.618;2023-05-10T12:19:50;23.00;99.90
39779;DHT22;25454;49.878;8.618;2023-05-10T12:24:54;22.40;99.90
39779;DHT22;25454;49.878;8.618;2023-05-10T12:29:54;21.50;99.90
39779;DHT22;25454;49.878;8.618;2023-05-10T12:34:57;21.30;99.90
39779;DHT22;25454;49.878;8.618;2023-05-10T12:39:58;21.90;99.90
39779;DHT22;25454;49.878;8.618;2023-05-10T12:44:58;22.20;99.20
39779;DHT22;25454;49.878;8.618;2023-05-10T12:50:00;22.60;98.40
39779;DHT22;25454;49.878;8.618;2023-05-10T12:55:01;22.80;98.10
39779;DHT22;25454;49.878;8.618;2023-05-10T13:00:03;22.70;97.70
39779;DHT22;25454;49.878;8.618;2023-05-10T13:05:06;22.40;97.30
39779;DHT22;25454;49.878;8.618;2023-05-10T13:10:07;22.40;97.40
39779;DHT22;25454;49.878;8.618;2023-05-10T13:15:08;21.80;97.60
39779;DHT22;25454;49.878;8.618;2023-05-10T13:20:09;21.30;97.10
39779;DHT22;25454;49.878;8.618;2023-05-10T13:25:10;21.10;96.90
39779;DHT22;25454;49.878;8.618;2023-05-10T13:30:11;21.00;97.30
39779;DHT22;25454;49.878;8.618;2023-05-10T13:35:12;20.70;99.20
39779;DHT22;25454;49.878;8.618;2023-05-10T13:40:12;20.60;99.90
39779;DHT22;25454;49.878;8.618;2023-05-10T13:45:15;21.10;99.90
39779;DHT22;25454;49.878;8.618;2023-05-10T13:50:16;21.70;99.90
39779;DHT22;25454;49.878;8.618;2023-05-10T13:55:17;22.20;99.90
39779;DHT22;25454;49.878;8.618;2023-05-10T14:00:18;22.10;99.50
39779;DHT22;25454;49.878;8.618;2023-05-10T14:05:18;21.80;99.30
39779;DHT22;25454;49.878;8.618;2023-05-10T14:10:19;21.40;99.90
39779;DHT22;25454;49.878;8.618;2023-05-10T14:15:20;21.40;99.90
39779;DHT22;25454;49.878;8.618;2023-05-10T14:20:20;21.30;99.90
39779;DHT22;25454;49.878;8.618;2023-05-10T14:25:21;21.00;99.90
39779;DHT22;25454;49.878;8.618;2023-05-10T14:30:22;20.80;99.90
39779;DHT22;25454;49.878;8.618;2023-05-10T14:35:22;20.60;99.90
39779;DHT22;25454;49.878;8.618;2023-05-10T14:40:23;20.60;99.90
39779;DHT22;25454;49.878;8.618;2023-05-10T14:45:23;20.80;99.90
39779;DHT22;25454;49.878;8.618;2023-05-10T14:50:24;21.00;99.30
39779;DHT22;25454;49.878;8.618;2023-05-10T14:55:25;21.10;98.70
39779;DHT22;25454;49.878;8.618;2023-05-10T15:00:25;21.10;99.00
39779;DHT22;25454;49.878;8.618;2023-05-10T15:05:26;21.10;97.30
39779;DHT22;25454;49.878;8.618;2023-05-10T15:10:26;21.00;97.20
39779;DHT22;25454;49.878;8.618;2023-05-10T15:15:27;20.90;97.40
39779;DHT22;25454;49.878;8.618;2023-05-10T15:20:28;20.80;98.10
39779;DHT22;25454;49.878;8.618;2023-05-10T15:25:28;20.60;97.20
39779;DHT22;25454;49.878;8.618;2023-05-10T15:30:29;20.80;97.00
39779;DHT22;25454;49.878;8.618;2023-05-10T15:35:29;20.80;96.60
39779;DHT22;25454;49.878;8.618;2023-05-10T15:40:30;20.70;96.40
39779;DHT22;25454;49.878;8.618;2023-05-10T15:45:31;20.60;96.50
39779;DHT22;25454;49.878;8.618;2023-05-10T15:50:31;20.40;96.20
39779;DHT22;25454;49.878;8.618;2023-05-10T15:55:32;20.30;96.10
39779;DHT22;25454;49.878;8.618;2023-05-10T16:00:34;20.30;96.20
39779;DHT22;25454;49.878;8.618;2023-05-10T16:05:34;20.20;96.10
39779;DHT22;25454;49.878;8.618;2023-05-10T16:10:35;20.00;95.90
39779;DHT22;25454;49.878;8.618;2023-05-10T16:15:36;20.00;96.70
39779;DHT22;25454;49.878;8.618;2023-05-10T16:20:37;20.00;96.80
39779;DHT22;25454;49.878;8.618;2023-05-10T16:25:37;20.00;96.50
39779;DHT22;25454;49.878;8.618;2023-05-10T16:30:38;20.10;95.90
39779;DHT22;25454;49.878;8.618;2023-05-10T16:35:39;20.10;95.60
39779;DHT22;25454;49.878;8.618;2023-05-10T16:40:39;20.10;95.60
39779;DHT22;25454;49.878;8.618;2023-05-10T16:45:40;19.90;95.00
39779;DHT22;25454;49.878;8.618;2023-05-10T16:50:44;19.80;95.00
39779;DHT22;25454;49.878;8.618;2023-05-10T16:55:45;19.70;95.40
39779;DHT22;25454;49.878;8.618;2023-05-10T17:00:45;19.60;95.50
39779;DHT22;25454;49.878;8.618;2023-05-10T17:05:46;19.40;95.70
39779;DHT22;25454;49.878;8.618;2023-05-10T17:10:47;19.30;96.40
39779;DHT22;25454;49.878;8.618;2023-05-10T17:15:47;19.10;96.80
39779;DHT22;25454;49.878;8.618;2023-05-10T17:20:48;19.00;96.50
39779;DHT22;25454;49.878;8.618;2023-05-10T17:25:49;18.80;95.80
39779;DHT22;25454;49.878;8.618;2023-05-10T17:30:56;18.60;96.10
39779;DHT22;25454;49.878;8.618;2023-05-10T17:35:57;18.40;97.10
39779;DHT22;25454;49.878;8.618;2023-05-10T17:41:01;18.30;97.60
39779;DHT22;25454;49.878;8.618;2023-05-10T17:46:01;18.20;98.50
39779;DHT22;25454;49.878;8.618;2023-05-10T17:51:03;18.10;99.30
39779;DHT22;25454;49.878;8.618;2023-05-10T17:56:04;18.00;99.90
39779;DHT22;25454;49.878;8.618;2023-05-10T18:01:08;17.80;99.90
39779;DHT22;25454;49.878;8.618;2023-05-10T18:06:08;17.70;99.90
39779;DHT22;25454;49.878;8.618;2023-05-10T18:11:09;17.50;99.90
39779;DHT22;25454;49.878;8.618;2023-05-10T18:16:10;17.40;99.90
39779;DHT22;25454;49.878;8.618;2023-05-10T18:21:12;17.30;99.90
39779;DHT22;25454;49.878;8.618;2023-05-10T18:26:13;17.10;99.90
39779;DHT22;25454;49.878;8.618;2023-05-10T18:31:14;16.90;99.90
39779;DHT22;25454;49.878;8.618;2023-05-10T18:36:14;16.90;99.90
39779;DHT22;25454;49.878;8.618;2023-05-10T18:41:15;16.70;99.90
39779;DHT22;25454;49.878;8.618;2023-05-10T18:46:16;16.50;99.90
39779;DHT22;25454;49.878;8.618;2023-05-10T18:51:16;16.30;99.90
39779;DHT22;25454;49.878;8.618;2023-05-10T18:56:17;16.20;99.90
39779;DHT22;25454;49.878;8.618;2023-05-10T19:01:18;16.00;99.90
39779;DHT22;25454;49.878;8.618;2023-05-10T19:06:18;15.80;99.90
39779;DHT22;25454;49.878;8.618;2023-05-10T19:11:19;15.60;99.90
39779;DHT22;25454;49.878;8.618;2023-05-10T19:16:21;15.50;99.90
39779;DHT22;25454;49.878;8.618;2023-05-10T19:21:21;15.40;99.90
39779;DHT22;25454;49.878;8.618;2023-05-10T19:26:22;15.30;99.90
39779;DHT22;25454;49.878;8.618;2023-05-10T19:31:23;15.20;99.90
39779;DHT22;25454;49.878;8.618;2023-05-10T19:36:23;15.20;99.90
39779;DHT22;25454;49.878;8.618;2023-05-10T19:41:24;15.10;99.90
39779;DHT22;25454;49.878;8.618;2023-05-10T19:46:25;15.00;99.90
39779;DHT22;25454;49.878;8.618;2023-05-10T19:51:26;15.00;99.90
39779;DHT22;25454;49.878;8.618;2023-05-10T19:56:26;15.00;99.90
39779;DHT22;25454;49.878;8.618;2023-05-10T20:01:28;14.90;99.90
39779;DHT22;25454;49.878;8.618;2023-05-10T20:06:29;14.90;99.90
39779;DHT22;25454;49.878;8.618;2023-05-10T20:11:31;14.80;99.90
39779;DHT22;25454;49.878;8.618;2023-05-10T20:16:31;14.70;99.90
39779;DHT22;25454;49.878;8.618;2023-05-10T20:21:32;14.70;99.90
39779;DHT22;25454;49.878;8.618;2023-05-10T20:26:32;14.60;99.90
39779;DHT22;25454;49.878;8.618;2023-05-10T20:31:33;14.60;99.90
39779;DHT22;25454;49.878;8.618;2023-05-10T20:36:34;14.60;99.90
39779;DHT22;25454;49.878;8.618;2023-05-10T20:41:34;14.60;99.90
39779;DHT22;25454;49.878;8.618;2023-05-10T20:46:35;14.50;99.90
39779;DHT22;25454;49.878;8.618;2023-05-10T20:51:36;14.50;99.90
39779;DHT22;25454;49.878;8.618;2023-05-10T20:56:36;14.50;99.90
39779;DHT22;25454;49.878;8.618;2023-05-10T21:01:37;14.50;99.90
39779;DHT22;25454;49.878;8.618;2023-05-10T21:06:37;14.50;99.90
39779;DHT22;25454;49.878;8.618;2023-05-10T21:11:38;14.40;99.90
39779;DHT22;25454;49.878;8.618;2023-05-10T21:16:38;14.30;99.90
39779;DHT22;25454;49.878;8.618;2023-05-10T21:21:39;14.30;99.90
39779;DHT22;25454;49.878;8.618;2023-05-10T21:26:40;14.20;99.90
39779;DHT22;25454;49.878;8.618;2023-05-10T21:31:40;14.20;99.90
39779;DHT22;25454;49.878;8.618;2023-05-10T21:36:41;14.10;99.90
39779;DHT22;25454;49.878;8.618;2023-05-10T21:41:42;14.00;99.90
39779;DHT22;25454;49.878;8.618;2023-05-10T21:46:42;13.80;99.90
39779;DHT22;25454;49.878;8.618;2023-05-10T21:51:43;13.80;99.90
39779;DHT22;25454;49.878;8.618;2023-05-10T21:56:44;13.70;99.90
39779;DHT22;25454;49.878;8.618;2023-05-10T22:01:44;13.60;99.90
39779;DHT22;25454;49.878;8.618;2023-05-10T22:06:45;13.50;99.90
39779;DHT22;25454;49.878;8.618;2023-05-10T22:11:46;13.50;99.90
39779;DHT22;25454;49.878;8.618;2023-05-10T22:16:47;13.50;99.90
39779;DHT22;25454;49.878;8.618;2023-05-10T22:21:48;13.50;99.90
39779;DHT22;25454;49.878;8.618;2023-05-10T22:26:48;13.40;99.90
39779;DHT22;25454;49.878;8.618;2023-05-10T22:31:49;13.40;99.90
39779;DHT22;25454;49.878;8.618;2023-05-10T22:36:50;13.40;99.90
39779;DHT22;25454;49.878;8.618;2023-05-10T22:41:50;13.30;99.90
39779;DHT22;25454;49.878;8.618;2023-05-10T22:46:54;13.20;99.90
39779;DHT22;25454;49.878;8.618;2023-05-10T22:51:54;13.10;99.90
39779;DHT22;25454;49.878;8.618;2023-05-10T22:56:55;13.10;99.90
39779;DHT22;25454;49.878;8.618;2023-05-10T23:01:56;13.00;99.90
39779;DHT22;25454;49.878;8.618;2023-05-10T23:06:56;12.90;99.90
39779;DHT22;25454;49.878;8.618;2023-05-10T23:11:57;12.90;99.90
39779;DHT22;25454;49.878;8.618;2023-05-10T23:16:57;12.90;99.90
39779;DHT22;25454;49.878;8.618;2023-05-10T23:21:58;12.80;99.90
39779;DHT22;25454;49.878;8.618;2023-05-10T23:26:59;12.80;99.90
39779;DHT22;25454;49.878;8.618;2023-05-10T23:31:59;12.80;99.90
39779;DHT22;25454;49.878;8.618;2023-05-10T23:37:01;12.80;99.90
39779;DHT22;25454;49.878;8.618;2023-05-10T23:42:01;12.80;99.90
39779;DHT22;25454;49.878;8.618;2023-05-10T23:47:02;12.70;99.90
39779;DHT22;25454;49.878;8.618;2023-05-10T23:52:03;12.70;99.90
39779;DHT22;25454;49.878;8.618;2023-05-10T23:57:10;12.70;99.90
